sensor_id;sensor_type;location;lat;lon;timestamp;P1;durP1;ratioP1;P2;durP2;ratioP2
9958;SDS011;5019;48.012;7.812;2022-07-18T00:01:31;7.50;;;4.23;;
9958;SDS011;5019;48.012;7.812;2022-07-18T00:03:58;3.50;;;3.20;;
9958;SDS011;5019;48.012;7.812;2022-07-18T00:06:24;3.30;;;3.00;;
9958;SDS011;5019;48.012;7.812;2022-07-18T00:08:50;6.30;;;3.07;;
9958;SDS011;5019;48.012;7.812;2022-07-18T00:11:17;15.60;;;8.50;;
9958;SDS011;5019;48.012;7.812;2022-07-18T00:13:44;11.47;;;5.20;;
9958;SDS011;5019;48.012;7.812;2022-07-18T00:16:10;2.90;;;2.67;;
9958;SDS011;5019;48.012;7.812;2022-07-18T00:18:36;8.80;;;2.90;;
9958;SDS011;5019;48.012;7.812;2022-07-18T00:21:02;3.00;;;2.80;;
9958;SDS011;5019;48.012;7.812;2022-07-18T00:23:28;8.20;;;4.10;;
9958;SDS011;5019;48.012;7.812;2022-07-18T00:25:54;6.50;;;3.90;;
9958;SDS011;5019;48.012;7.812;2022-07-18T00:28:20;7.10;;;4.10;;
9958;SDS011;5019;48.012;7.812;2022-07-18T00:30:46;6.70;;;3.47;;
9958;SDS011;5019;48.012;7.812;2022-07-18T00:33:12;7.37;;;5.87;;
9958;SDS011;5019;48.012;7.812;2022-07-18T00:35:38;3.70;;;3.10;;
9958;SDS011;5019;48.012;7.812;2022-07-18T00:38:04;4.53;;;2.97;;
9958;SDS011;5019;48.012;7.812;2022-07-18T00:40:30;4.73;;;3.33;;
9958;SDS011;5019;48.012;7.812;2022-07-18T00:42:56;5.27;;;3.50;;
9958;SDS011;5019;48.012;7.812;2022-07-18T00:45:22;3.13;;;2.83;;
9958;SDS011;5019;48.012;7.812;2022-07-18T00:47:49;4.87;;;3.53;;
9958;SDS011;5019;48.012;7.812;2022-07-18T00:50:21;7.13;;;3.17;;
9958;SDS011;5019;48.012;7.812;2022-07-18T00:52:47;11.20;;;4.07;;
9958;SDS011;5019;48.012;7.812;2022-07-18T00:55:14;11.97;;;5.60;;
9958;SDS011;5019;48.012;7.812;2022-07-18T00:57:40;5.73;;;3.63;;
9958;SDS011;5019;48.012;7.812;2022-07-18T01:00:08;4.43;;;3.30;;
9958;SDS011;5019;48.012;7.812;2022-07-18T01:02:53;13.67;;;4.50;;
9958;SDS011;5019;48.012;7.812;2022-07-18T01:05:20;7.40;;;4.90;;
9958;SDS011;5019;48.012;7.812;2022-07-18T01:07:46;13.60;;;7.00;;
9958;SDS011;5019;48.012;7.812;2022-07-18T01:10:12;20.13;;;11.07;;
9958;SDS011;5019;48.012;7.812;2022-07-18T01:12:38;5.50;;;4.73;;
9958;SDS011;5019;48.012;7.812;2022-07-18T01:15:04;12.93;;;6.87;;
9958;SDS011;5019;48.012;7.812;2022-07-18T01:17:31;11.50;;;6.97;;
9958;SDS011;5019;48.012;7.812;2022-07-18T01:19:57;25.63;;;11.27;;
9958;SDS011;5019;48.012;7.812;2022-07-18T01:22:23;19.00;;;10.40;;
9958;SDS011;5019;48.012;7.812;2022-07-18T01:24:49;18.67;;;9.00;;
9958;SDS011;5019;48.012;7.812;2022-07-18T01:27:16;5.93;;;3.80;;
9958;SDS011;5019;48.012;7.812;2022-07-18T01:29:43;4.80;;;3.43;;
9958;SDS011;5019;48.012;7.812;2022-07-18T01:32:10;10.40;;;6.20;;
9958;SDS011;5019;48.012;7.812;2022-07-18T01:34:36;5.07;;;3.50;;
9958;SDS011;5019;48.012;7.812;2022-07-18T01:37:03;3.03;;;2.80;;
9958;SDS011;5019;48.012;7.812;2022-07-18T01:39:29;3.27;;;2.90;;
9958;SDS011;5019;48.012;7.812;2022-07-18T01:42:06;3.20;;;2.97;;
9958;SDS011;5019;48.012;7.812;2022-07-18T01:44:33;8.63;;;6.67;;
9958;SDS011;5019;48.012;7.812;2022-07-18T01:46:59;7.13;;;4.80;;
9958;SDS011;5019;48.012;7.812;2022-07-18T01:49:26;4.07;;;2.90;;
9958;SDS011;5019;48.012;7.812;2022-07-18T01:51:52;3.20;;;3.00;;
9958;SDS011;5019;48.012;7.812;2022-07-18T01:54:19;3.17;;;2.57;;
9958;SDS011;5019;48.012;7.812;2022-07-18T01:56:46;3.83;;;3.27;;
9958;SDS011;5019;48.012;7.812;2022-07-18T01:59:12;6.90;;;4.17;;
9958;SDS011;5019;48.012;7.812;2022-07-18T02:01:38;6.97;;;3.40;;
9958;SDS011;5019;48.012;7.812;2022-07-18T02:04:04;4.30;;;3.90;;
9958;SDS011;5019;48.012;7.812;2022-07-18T02:06:30;8.43;;;5.93;;
9958;SDS011;5019;48.012;7.812;2022-07-18T02:08:56;4.90;;;4.13;;
9958;SDS011;5019;48.012;7.812;2022-07-18T02:11:22;5.90;;;4.30;;
9958;SDS011;5019;48.012;7.812;2022-07-18T02:13:48;18.50;;;9.80;;
9958;SDS011;5019;48.012;7.812;2022-07-18T02:16:14;8.83;;;5.63;;
9958;SDS011;5019;48.012;7.812;2022-07-18T02:18:41;8.63;;;5.63;;
9958;SDS011;5019;48.012;7.812;2022-07-18T02:21:07;6.77;;;5.00;;
9958;SDS011;5019;48.012;7.812;2022-07-18T02:23:34;11.37;;;6.47;;
9958;SDS011;5019;48.012;7.812;2022-07-18T02:26:00;3.20;;;2.77;;
9958;SDS011;5019;48.012;7.812;2022-07-18T02:28:26;8.43;;;5.50;;
9958;SDS011;5019;48.012;7.812;2022-07-18T02:30:52;8.77;;;5.80;;
9958;SDS011;5019;48.012;7.812;2022-07-18T02:33:18;4.77;;;4.33;;
9958;SDS011;5019;48.012;7.812;2022-07-18T02:35:44;3.97;;;3.57;;
9958;SDS011;5019;48.012;7.812;2022-07-18T02:38:10;11.90;;;5.00;;
9958;SDS011;5019;48.012;7.812;2022-07-18T02:40:36;2.80;;;2.60;;
9958;SDS011;5019;48.012;7.812;2022-07-18T02:43:03;6.70;;;4.33;;
9958;SDS011;5019;48.012;7.812;2022-07-18T02:45:29;5.40;;;4.90;;
9958;SDS011;5019;48.012;7.812;2022-07-18T02:47:55;5.43;;;4.00;;
9958;SDS011;5019;48.012;7.812;2022-07-18T02:50:21;5.57;;;3.90;;
9958;SDS011;5019;48.012;7.812;2022-07-18T02:52:47;5.83;;;4.40;;
9958;SDS011;5019;48.012;7.812;2022-07-18T02:55:15;4.80;;;4.30;;
9958;SDS011;5019;48.012;7.812;2022-07-18T02:57:41;9.57;;;6.30;;
9958;SDS011;5019;48.012;7.812;2022-07-18T03:00:11;3.77;;;3.20;;
9958;SDS011;5019;48.012;7.812;2022-07-18T03:02:38;8.23;;;4.30;;
9958;SDS011;5019;48.012;7.812;2022-07-18T03:05:05;8.50;;;4.47;;
9958;SDS011;5019;48.012;7.812;2022-07-18T03:07:31;4.93;;;4.23;;
9958;SDS011;5019;48.012;7.812;2022-07-18T03:09:58;7.17;;;4.93;;
9958;SDS011;5019;48.012;7.812;2022-07-18T03:12:24;6.20;;;4.43;;
9958;SDS011;5019;48.012;7.812;2022-07-18T03:14:50;5.93;;;4.27;;
9958;SDS011;5019;48.012;7.812;2022-07-18T03:17:18;3.20;;;3.00;;
9958;SDS011;5019;48.012;7.812;2022-07-18T03:19:45;6.67;;;4.10;;
9958;SDS011;5019;48.012;7.812;2022-07-18T03:22:11;5.90;;;4.40;;
9958;SDS011;5019;48.012;7.812;2022-07-18T03:24:37;5.40;;;3.97;;
9958;SDS011;5019;48.012;7.812;2022-07-18T03:27:03;4.73;;;4.27;;
9958;SDS011;5019;48.012;7.812;2022-07-18T03:29:29;6.30;;;4.40;;
9958;SDS011;5019;48.012;7.812;2022-07-18T03:31:55;4.30;;;3.90;;
9958;SDS011;5019;48.012;7.812;2022-07-18T03:34:21;5.93;;;4.17;;
9958;SDS011;5019;48.012;7.812;2022-07-18T03:36:47;6.67;;;4.67;;
9958;SDS011;5019;48.012;7.812;2022-07-18T03:39:13;6.90;;;3.73;;
9958;SDS011;5019;48.012;7.812;2022-07-18T03:41:39;5.23;;;3.63;;
9958;SDS011;5019;48.012;7.812;2022-07-18T03:44:05;3.77;;;3.27;;
9958;SDS011;5019;48.012;7.812;2022-07-18T03:46:31;4.33;;;3.47;;
9958;SDS011;5019;48.012;7.812;2022-07-18T03:48:58;10.10;;;5.03;;
9958;SDS011;5019;48.012;7.812;2022-07-18T03:51:24;5.70;;;3.67;;
9958;SDS011;5019;48.012;7.812;2022-07-18T03:53:50;5.97;;;3.70;;
9958;SDS011;5019;48.012;7.812;2022-07-18T03:56:16;5.33;;;4.83;;
9958;SDS011;5019;48.012;7.812;2022-07-18T03:58:42;5.17;;;4.67;;
9958;SDS011;5019;48.012;7.812;2022-07-18T04:01:08;12.17;;;4.30;;
9958;SDS011;5019;48.012;7.812;2022-07-18T04:03:34;5.63;;;4.83;;
9958;SDS011;5019;48.012;7.812;2022-07-18T04:06:00;4.00;;;3.70;;
9958;SDS011;5019;48.012;7.812;2022-07-18T04:08:26;5.53;;;4.10;;
9958;SDS011;5019;48.012;7.812;2022-07-18T04:10:52;5.33;;;3.60;;
9958;SDS011;5019;48.012;7.812;2022-07-18T04:13:18;4.87;;;3.70;;
9958;SDS011;5019;48.012;7.812;2022-07-18T04:15:45;4.60;;;4.20;;
9958;SDS011;5019;48.012;7.812;2022-07-18T04:18:11;5.07;;;3.87;;
9958;SDS011;5019;48.012;7.812;2022-07-18T04:20:37;9.27;;;4.40;;
9958;SDS011;5019;48.012;7.812;2022-07-18T04:23:07;5.60;;;4.30;;
9958;SDS011;5019;48.012;7.812;2022-07-18T04:25:40;3.90;;;3.57;;
9958;SDS011;5019;48.012;7.812;2022-07-18T04:28:07;3.70;;;3.40;;
9958;SDS011;5019;48.012;7.812;2022-07-18T04:30:34;3.50;;;3.20;;
9958;SDS011;5019;48.012;7.812;2022-07-18T04:33:01;3.60;;;3.30;;
9958;SDS011;5019;48.012;7.812;2022-07-18T04:35:28;5.07;;;3.23;;
9958;SDS011;5019;48.012;7.812;2022-07-18T04:37:54;3.53;;;3.23;;
9958;SDS011;5019;48.012;7.812;2022-07-18T04:40:20;3.97;;;3.30;;
9958;SDS011;5019;48.012;7.812;2022-07-18T04:42:47;3.70;;;3.30;;
9958;SDS011;5019;48.012;7.812;2022-07-18T04:45:13;3.30;;;3.00;;
9958;SDS011;5019;48.012;7.812;2022-07-18T04:47:40;4.00;;;3.70;;
9958;SDS011;5019;48.012;7.812;2022-07-18T04:50:07;7.73;;;3.10;;
9958;SDS011;5019;48.012;7.812;2022-07-18T04:52:37;5.97;;;3.60;;
9958;SDS011;5019;48.012;7.812;2022-07-18T04:55:03;4.40;;;4.00;;
9958;SDS011;5019;48.012;7.812;2022-07-18T04:57:30;4.73;;;3.90;;
9958;SDS011;5019;48.012;7.812;2022-07-18T04:59:56;3.27;;;2.93;;
9958;SDS011;5019;48.012;7.812;2022-07-18T05:02:22;3.60;;;3.30;;
9958;SDS011;5019;48.012;7.812;2022-07-18T05:04:48;3.90;;;3.60;;
9958;SDS011;5019;48.012;7.812;2022-07-18T05:07:14;3.07;;;2.87;;
9958;SDS011;5019;48.012;7.812;2022-07-18T05:09:40;3.53;;;3.00;;
9958;SDS011;5019;48.012;7.812;2022-07-18T05:12:06;3.53;;;2.93;;
9958;SDS011;5019;48.012;7.812;2022-07-18T05:14:32;4.20;;;3.80;;
9958;SDS011;5019;48.012;7.812;2022-07-18T05:16:58;6.30;;;3.73;;
9958;SDS011;5019;48.012;7.812;2022-07-18T05:19:24;3.73;;;3.37;;
9958;SDS011;5019;48.012;7.812;2022-07-18T05:21:50;5.33;;;4.00;;
9958;SDS011;5019;48.012;7.812;2022-07-18T05:24:16;4.33;;;3.43;;
9958;SDS011;5019;48.012;7.812;2022-07-18T05:26:42;3.87;;;3.53;;
9958;SDS011;5019;48.012;7.812;2022-07-18T05:29:08;7.23;;;3.37;;
9958;SDS011;5019;48.012;7.812;2022-07-18T05:31:34;4.33;;;3.63;;
9958;SDS011;5019;48.012;7.812;2022-07-18T05:34:00;7.13;;;3.80;;
9958;SDS011;5019;48.012;7.812;2022-07-18T05:36:26;6.20;;;3.67;;
9958;SDS011;5019;48.012;7.812;2022-07-18T05:38:52;7.30;;;3.73;;
9958;SDS011;5019;48.012;7.812;2022-07-18T05:41:18;4.37;;;3.30;;
9958;SDS011;5019;48.012;7.812;2022-07-18T05:43:44;5.07;;;3.73;;
9958;SDS011;5019;48.012;7.812;2022-07-18T05:46:10;8.73;;;4.43;;
9958;SDS011;5019;48.012;7.812;2022-07-18T05:48:36;4.40;;;3.50;;
9958;SDS011;5019;48.012;7.812;2022-07-18T05:51:02;5.37;;;3.57;;
9958;SDS011;5019;48.012;7.812;2022-07-18T05:53:28;5.50;;;3.50;;
9958;SDS011;5019;48.012;7.812;2022-07-18T05:55:54;5.00;;;3.50;;
9958;SDS011;5019;48.012;7.812;2022-07-18T05:58:20;4.97;;;3.60;;
9958;SDS011;5019;48.012;7.812;2022-07-18T06:00:47;5.80;;;3.63;;
9958;SDS011;5019;48.012;7.812;2022-07-18T06:03:13;8.57;;;3.97;;
9958;SDS011;5019;48.012;7.812;2022-07-18T06:05:39;4.90;;;4.10;;
9958;SDS011;5019;48.012;7.812;2022-07-18T06:08:05;3.43;;;3.13;;
9958;SDS011;5019;48.012;7.812;2022-07-18T06:10:31;5.33;;;3.80;;
9958;SDS011;5019;48.012;7.812;2022-07-18T06:12:57;4.20;;;3.27;;
9958;SDS011;5019;48.012;7.812;2022-07-18T06:15:24;4.80;;;3.73;;
9958;SDS011;5019;48.012;7.812;2022-07-18T06:17:50;9.03;;;3.70;;
9958;SDS011;5019;48.012;7.812;2022-07-18T06:20:16;6.03;;;3.20;;
9958;SDS011;5019;48.012;7.812;2022-07-18T06:22:42;7.13;;;3.17;;
9958;SDS011;5019;48.012;7.812;2022-07-18T06:25:08;8.37;;;3.63;;
9958;SDS011;5019;48.012;7.812;2022-07-18T06:27:34;6.83;;;3.53;;
9958;SDS011;5019;48.012;7.812;2022-07-18T06:30:01;4.70;;;3.70;;
9958;SDS011;5019;48.012;7.812;2022-07-18T06:32:29;8.73;;;3.07;;
9958;SDS011;5019;48.012;7.812;2022-07-18T06:34:56;3.20;;;2.90;;
9958;SDS011;5019;48.012;7.812;2022-07-18T06:37:22;7.27;;;3.80;;
9958;SDS011;5019;48.012;7.812;2022-07-18T06:39:48;6.80;;;3.30;;
9958;SDS011;5019;48.012;7.812;2022-07-18T06:42:14;5.80;;;4.10;;
9958;SDS011;5019;48.012;7.812;2022-07-18T06:44:40;9.70;;;3.07;;
9958;SDS011;5019;48.012;7.812;2022-07-18T06:47:06;3.90;;;2.50;;
9958;SDS011;5019;48.012;7.812;2022-07-18T06:49:32;3.43;;;3.13;;
9958;SDS011;5019;48.012;7.812;2022-07-18T06:51:58;5.13;;;3.17;;
9958;SDS011;5019;48.012;7.812;2022-07-18T06:54:24;2.93;;;2.73;;
9958;SDS011;5019;48.012;7.812;2022-07-18T06:56:53;5.67;;;3.27;;
9958;SDS011;5019;48.012;7.812;2022-07-18T06:59:19;6.30;;;2.60;;
9958;SDS011;5019;48.012;7.812;2022-07-18T07:01:45;3.20;;;2.70;;
9958;SDS011;5019;48.012;7.812;2022-07-18T07:04:11;6.00;;;3.10;;
9958;SDS011;5019;48.012;7.812;2022-07-18T07:06:37;3.13;;;2.80;;
9958;SDS011;5019;48.012;7.812;2022-07-18T07:09:04;2.87;;;2.67;;
9958;SDS011;5019;48.012;7.812;2022-07-18T07:11:30;10.47;;;3.40;;
9958;SDS011;5019;48.012;7.812;2022-07-18T07:13:56;6.47;;;3.47;;
9958;SDS011;5019;48.012;7.812;2022-07-18T07:16:22;4.60;;;3.17;;
9958;SDS011;5019;48.012;7.812;2022-07-18T07:18:48;13.10;;;3.60;;
9958;SDS011;5019;48.012;7.812;2022-07-18T07:21:15;3.37;;;3.07;;
9958;SDS011;5019;48.012;7.812;2022-07-18T07:23:41;5.20;;;4.70;;
9958;SDS011;5019;48.012;7.812;2022-07-18T07:26:07;3.67;;;2.60;;
9958;SDS011;5019;48.012;7.812;2022-07-18T07:28:33;2.83;;;2.63;;
9958;SDS011;5019;48.012;7.812;2022-07-18T07:30:59;3.07;;;2.87;;
9958;SDS011;5019;48.012;7.812;2022-07-18T07:33:25;15.33;;;5.17;;
9958;SDS011;5019;48.012;7.812;2022-07-18T07:35:51;11.23;;;3.93;;
9958;SDS011;5019;48.012;7.812;2022-07-18T07:38:17;2.77;;;2.53;;
9958;SDS011;5019;48.012;7.812;2022-07-18T07:40:45;4.37;;;3.87;;
9958;SDS011;5019;48.012;7.812;2022-07-18T07:43:12;24.80;;;4.97;;
9958;SDS011;5019;48.012;7.812;2022-07-18T07:45:39;4.30;;;2.83;;
9958;SDS011;5019;48.012;7.812;2022-07-18T07:48:05;8.20;;;2.70;;
9958;SDS011;5019;48.012;7.812;2022-07-18T07:50:32;8.63;;;3.00;;
9958;SDS011;5019;48.012;7.812;2022-07-18T07:52:58;6.00;;;3.20;;
9958;SDS011;5019;48.012;7.812;2022-07-18T07:55:24;3.13;;;2.33;;
9958;SDS011;5019;48.012;7.812;2022-07-18T07:57:50;3.50;;;2.63;;
9958;SDS011;5019;48.012;7.812;2022-07-18T08:00:17;5.93;;;3.10;;
9958;SDS011;5019;48.012;7.812;2022-07-18T08:02:52;3.87;;;2.77;;
9958;SDS011;5019;48.012;7.812;2022-07-18T08:05:19;4.70;;;3.13;;
9958;SDS011;5019;48.012;7.812;2022-07-18T08:07:45;3.37;;;2.70;;
9958;SDS011;5019;48.012;7.812;2022-07-18T08:10:11;3.70;;;3.30;;
9958;SDS011;5019;48.012;7.812;2022-07-18T08:12:37;4.03;;;2.80;;
9958;SDS011;5019;48.012;7.812;2022-07-18T08:15:03;3.97;;;2.63;;
9958;SDS011;5019;48.012;7.812;2022-07-18T08:17:29;10.40;;;3.67;;
9958;SDS011;5019;48.012;7.812;2022-07-18T08:19:55;3.03;;;2.80;;
9958;SDS011;5019;48.012;7.812;2022-07-18T08:22:21;3.67;;;3.03;;
9958;SDS011;5019;48.012;7.812;2022-07-18T08:24:47;5.80;;;3.33;;
9958;SDS011;5019;48.012;7.812;2022-07-18T08:27:13;3.70;;;3.37;;
9958;SDS011;5019;48.012;7.812;2022-07-18T08:29:39;3.10;;;2.90;;
9958;SDS011;5019;48.012;7.812;2022-07-18T08:32:05;3.50;;;3.20;;
9958;SDS011;5019;48.012;7.812;2022-07-18T08:36:58;2.70;;;2.50;;
9958;SDS011;5019;48.012;7.812;2022-07-18T08:39:24;2.87;;;2.67;;
9958;SDS011;5019;48.012;7.812;2022-07-18T08:41:50;6.83;;;2.53;;
9958;SDS011;5019;48.012;7.812;2022-07-18T08:44:17;4.20;;;2.70;;
9958;SDS011;5019;48.012;7.812;2022-07-18T08:46:50;3.73;;;2.57;;
9958;SDS011;5019;48.012;7.812;2022-07-18T08:49:19;6.50;;;2.93;;
9958;SDS011;5019;48.012;7.812;2022-07-18T08:51:45;2.50;;;2.30;;
9958;SDS011;5019;48.012;7.812;2022-07-18T08:54:11;3.33;;;2.90;;
9958;SDS011;5019;48.012;7.812;2022-07-18T08:56:37;5.80;;;2.60;;
9958;SDS011;5019;48.012;7.812;2022-07-18T08:59:03;4.60;;;2.57;;
9958;SDS011;5019;48.012;7.812;2022-07-18T09:01:30;3.50;;;2.77;;
9958;SDS011;5019;48.012;7.812;2022-07-18T09:03:56;3.50;;;3.03;;
9958;SDS011;5019;48.012;7.812;2022-07-18T09:06:45;3.13;;;2.83;;
9958;SDS011;5019;48.012;7.812;2022-07-18T09:09:12;3.63;;;3.33;;
9958;SDS011;5019;48.012;7.812;2022-07-18T09:14:30;3.33;;;3.00;;
9958;SDS011;5019;48.012;7.812;2022-07-18T09:17:00;5.27;;;2.60;;
9958;SDS011;5019;48.012;7.812;2022-07-18T09:19:26;4.60;;;2.93;;
9958;SDS011;5019;48.012;7.812;2022-07-18T09:21:52;4.00;;;2.90;;
9958;SDS011;5019;48.012;7.812;2022-07-18T09:24:18;3.37;;;3.07;;
9958;SDS011;5019;48.012;7.812;2022-07-18T09:26:44;2.67;;;2.47;;
9958;SDS011;5019;48.012;7.812;2022-07-18T09:29:16;3.23;;;2.63;;
9958;SDS011;5019;48.012;7.812;2022-07-18T09:31:49;3.77;;;3.10;;
9958;SDS011;5019;48.012;7.812;2022-07-18T09:34:15;4.60;;;2.83;;
9958;SDS011;5019;48.012;7.812;2022-07-18T09:36:57;3.80;;;2.77;;
9958;SDS011;5019;48.012;7.812;2022-07-18T09:39:23;4.30;;;2.37;;
9958;SDS011;5019;48.012;7.812;2022-07-18T09:41:49;4.70;;;3.17;;
9958;SDS011;5019;48.012;7.812;2022-07-18T09:44:16;3.17;;;2.87;;
9958;SDS011;5019;48.012;7.812;2022-07-18T09:49:30;4.47;;;2.77;;
9958;SDS011;5019;48.012;7.812;2022-07-18T09:52:01;4.03;;;3.17;;
9958;SDS011;5019;48.012;7.812;2022-07-18T09:57:02;6.53;;;2.80;;
9958;SDS011;5019;48.012;7.812;2022-07-18T09:59:28;6.00;;;3.07;;
9958;SDS011;5019;48.012;7.812;2022-07-18T10:01:55;2.47;;;2.27;;
9958;SDS011;5019;48.012;7.812;2022-07-18T10:04:21;2.87;;;2.67;;
9958;SDS011;5019;48.012;7.812;2022-07-18T10:06:47;3.13;;;2.87;;
9958;SDS011;5019;48.012;7.812;2022-07-18T10:09:13;2.80;;;2.60;;
9958;SDS011;5019;48.012;7.812;2022-07-18T10:11:40;3.13;;;2.63;;
9958;SDS011;5019;48.012;7.812;2022-07-18T10:14:06;10.20;;;3.57;;
9958;SDS011;5019;48.012;7.812;2022-07-18T10:16:32;5.00;;;2.90;;
9958;SDS011;5019;48.012;7.812;2022-07-18T10:18:58;2.33;;;2.13;;
9958;SDS011;5019;48.012;7.812;2022-07-18T10:21:24;5.00;;;2.47;;
9958;SDS011;5019;48.012;7.812;2022-07-18T10:23:51;3.30;;;3.00;;
9958;SDS011;5019;48.012;7.812;2022-07-18T10:26:24;5.80;;;3.53;;
9958;SDS011;5019;48.012;7.812;2022-07-18T10:31:27;3.33;;;3.03;;
9958;SDS011;5019;48.012;7.812;2022-07-18T10:33:54;3.80;;;2.90;;
9958;SDS011;5019;48.012;7.812;2022-07-18T10:36:20;8.03;;;2.67;;
9958;SDS011;5019;48.012;7.812;2022-07-18T10:41:32;5.37;;;3.50;;
9958;SDS011;5019;48.012;7.812;2022-07-18T10:43:58;3.93;;;2.83;;
9958;SDS011;5019;48.012;7.812;2022-07-18T10:46:26;3.07;;;2.87;;
9958;SDS011;5019;48.012;7.812;2022-07-18T10:49:10;3.13;;;2.63;;
9958;SDS011;5019;48.012;7.812;2022-07-18T10:51:36;5.27;;;2.77;;
9958;SDS011;5019;48.012;7.812;2022-07-18T10:54:04;2.83;;;2.63;;
9958;SDS011;5019;48.012;7.812;2022-07-18T10:58:59;3.23;;;2.93;;
9958;SDS011;5019;48.012;7.812;2022-07-18T11:01:26;2.70;;;2.50;;
9958;SDS011;5019;48.012;7.812;2022-07-18T11:06:52;9.03;;;3.17;;
9958;SDS011;5019;48.012;7.812;2022-07-18T11:09:35;6.13;;;3.17;;
9958;SDS011;5019;48.012;7.812;2022-07-18T11:15:06;4.43;;;2.60;;
9958;SDS011;5019;48.012;7.812;2022-07-18T11:22:58;3.53;;;2.70;;
9958;SDS011;5019;48.012;7.812;2022-07-18T11:25:25;3.37;;;3.07;;
9958;SDS011;5019;48.012;7.812;2022-07-18T11:27:52;2.70;;;2.50;;
9958;SDS011;5019;48.012;7.812;2022-07-18T11:30:19;2.87;;;2.67;;
9958;SDS011;5019;48.012;7.812;2022-07-18T11:32:45;3.03;;;2.83;;
9958;SDS011;5019;48.012;7.812;2022-07-18T11:35:12;3.93;;;2.93;;
9958;SDS011;5019;48.012;7.812;2022-07-18T11:37:38;4.27;;;2.70;;
9958;SDS011;5019;48.012;7.812;2022-07-18T11:40:06;2.73;;;2.53;;
9958;SDS011;5019;48.012;7.812;2022-07-18T11:42:39;6.60;;;2.87;;
9958;SDS011;5019;48.012;7.812;2022-07-18T11:45:06;3.43;;;3.20;;
9958;SDS011;5019;48.012;7.812;2022-07-18T11:47:39;2.50;;;2.40;;
9958;SDS011;5019;48.012;7.812;2022-07-18T11:50:05;2.80;;;2.60;;
9958;SDS011;5019;48.012;7.812;2022-07-18T11:52:31;4.17;;;2.50;;
9958;SDS011;5019;48.012;7.812;2022-07-18T11:54:58;2.83;;;2.63;;
9958;SDS011;5019;48.012;7.812;2022-07-18T11:57:28;2.70;;;2.50;;
9958;SDS011;5019;48.012;7.812;2022-07-18T11:59:55;2.47;;;2.30;;
9958;SDS011;5019;48.012;7.812;2022-07-18T12:05:05;2.90;;;2.20;;
9958;SDS011;5019;48.012;7.812;2022-07-18T12:07:31;3.63;;;2.37;;
9958;SDS011;5019;48.012;7.812;2022-07-18T12:10:13;2.43;;;2.23;;
9958;SDS011;5019;48.012;7.812;2022-07-18T12:12:39;2.33;;;2.13;;
9958;SDS011;5019;48.012;7.812;2022-07-18T12:15:06;3.80;;;3.50;;
9958;SDS011;5019;48.012;7.812;2022-07-18T12:17:42;4.70;;;2.80;;
9958;SDS011;5019;48.012;7.812;2022-07-18T12:20:09;2.33;;;2.10;;
9958;SDS011;5019;48.012;7.812;2022-07-18T12:22:35;3.57;;;2.03;;
9958;SDS011;5019;48.012;7.812;2022-07-18T12:25:01;6.03;;;3.67;;
9958;SDS011;5019;48.012;7.812;2022-07-18T12:32:41;4.13;;;2.87;;
9958;SDS011;5019;48.012;7.812;2022-07-18T12:35:09;2.73;;;2.53;;
9958;SDS011;5019;48.012;7.812;2022-07-18T12:37:35;3.37;;;2.57;;
9958;SDS011;5019;48.012;7.812;2022-07-18T12:40:05;3.00;;;2.70;;
9958;SDS011;5019;48.012;7.812;2022-07-18T12:42:35;4.97;;;2.40;;
9958;SDS011;5019;48.012;7.812;2022-07-18T12:45:02;3.00;;;2.33;;
9958;SDS011;5019;48.012;7.812;2022-07-18T12:47:28;2.20;;;2.10;;
9958;SDS011;5019;48.012;7.812;2022-07-18T12:49:54;2.93;;;2.43;;
9958;SDS011;5019;48.012;7.812;2022-07-18T12:52:20;2.50;;;2.40;;
9958;SDS011;5019;48.012;7.812;2022-07-18T12:54:47;5.47;;;1.80;;
9958;SDS011;5019;48.012;7.812;2022-07-18T12:57:13;2.80;;;2.60;;
9958;SDS011;5019;48.012;7.812;2022-07-18T12:59:39;7.67;;;2.47;;
9958;SDS011;5019;48.012;7.812;2022-07-18T13:02:05;3.43;;;2.27;;
9958;SDS011;5019;48.012;7.812;2022-07-18T13:04:31;5.33;;;2.67;;
9958;SDS011;5019;48.012;7.812;2022-07-18T13:06:57;2.13;;;1.93;;
9958;SDS011;5019;48.012;7.812;2022-07-18T13:09:23;2.83;;;2.40;;
9958;SDS011;5019;48.012;7.812;2022-07-18T13:11:49;2.57;;;2.37;;
9958;SDS011;5019;48.012;7.812;2022-07-18T13:14:16;2.90;;;2.70;;
9958;SDS011;5019;48.012;7.812;2022-07-18T13:16:45;3.60;;;2.40;;
9958;SDS011;5019;48.012;7.812;2022-07-18T13:19:15;2.80;;;2.60;;
9958;SDS011;5019;48.012;7.812;2022-07-18T13:21:42;4.67;;;2.80;;
9958;SDS011;5019;48.012;7.812;2022-07-18T13:24:09;2.60;;;2.40;;
9958;SDS011;5019;48.012;7.812;2022-07-18T13:26:35;2.47;;;2.27;;
9958;SDS011;5019;48.012;7.812;2022-07-18T13:29:02;2.60;;;2.40;;
9958;SDS011;5019;48.012;7.812;2022-07-18T13:31:28;2.60;;;2.40;;
9958;SDS011;5019;48.012;7.812;2022-07-18T13:33:54;3.13;;;2.90;;
9958;SDS011;5019;48.012;7.812;2022-07-18T13:36:21;2.80;;;2.33;;
9958;SDS011;5019;48.012;7.812;2022-07-18T13:38:47;2.37;;;2.17;;
9958;SDS011;5019;48.012;7.812;2022-07-18T13:41:13;5.20;;;2.50;;
9958;SDS011;5019;48.012;7.812;2022-07-18T13:43:39;2.73;;;2.20;;
9958;SDS011;5019;48.012;7.812;2022-07-18T13:46:06;2.80;;;2.60;;
9958;SDS011;5019;48.012;7.812;2022-07-18T13:48:32;2.30;;;2.20;;
9958;SDS011;5019;48.012;7.812;2022-07-18T13:50:58;2.50;;;2.30;;
9958;SDS011;5019;48.012;7.812;2022-07-18T13:53:24;2.10;;;2.00;;
9958;SDS011;5019;48.012;7.812;2022-07-18T13:55:51;2.90;;;2.70;;
9958;SDS011;5019;48.012;7.812;2022-07-18T13:58:17;3.07;;;2.20;;
9958;SDS011;5019;48.012;7.812;2022-07-18T14:00:44;2.60;;;2.40;;
9958;SDS011;5019;48.012;7.812;2022-07-18T14:03:10;4.40;;;2.60;;
9958;SDS011;5019;48.012;7.812;2022-07-18T14:05:37;3.37;;;2.53;;
9958;SDS011;5019;48.012;7.812;2022-07-18T14:08:03;3.20;;;2.60;;
9958;SDS011;5019;48.012;7.812;2022-07-18T14:10:29;2.60;;;2.37;;
9958;SDS011;5019;48.012;7.812;2022-07-18T14:12:55;2.93;;;2.73;;
9958;SDS011;5019;48.012;7.812;2022-07-18T14:15:21;4.67;;;2.60;;
9958;SDS011;5019;48.012;7.812;2022-07-18T14:17:47;3.13;;;2.20;;
9958;SDS011;5019;48.012;7.812;2022-07-18T14:20:13;4.63;;;2.60;;
9958;SDS011;5019;48.012;7.812;2022-07-18T14:22:41;2.63;;;2.43;;
9958;SDS011;5019;48.012;7.812;2022-07-18T14:25:08;2.73;;;2.50;;
9958;SDS011;5019;48.012;7.812;2022-07-18T14:27:35;3.90;;;2.47;;
9958;SDS011;5019;48.012;7.812;2022-07-18T14:30:01;2.63;;;2.30;;
9958;SDS011;5019;48.012;7.812;2022-07-18T14:32:27;4.27;;;2.30;;
9958;SDS011;5019;48.012;7.812;2022-07-18T14:34:53;2.33;;;2.13;;
9958;SDS011;5019;48.012;7.812;2022-07-18T14:37:19;2.80;;;2.60;;
9958;SDS011;5019;48.012;7.812;2022-07-18T14:39:45;2.27;;;2.17;;
9958;SDS011;5019;48.012;7.812;2022-07-18T14:42:11;2.90;;;2.57;;
9958;SDS011;5019;48.012;7.812;2022-07-18T14:44:38;3.93;;;2.63;;
9958;SDS011;5019;48.012;7.812;2022-07-18T14:47:04;2.80;;;2.20;;
9958;SDS011;5019;48.012;7.812;2022-07-18T14:49:30;2.83;;;2.63;;
9958;SDS011;5019;48.012;7.812;2022-07-18T14:51:56;3.27;;;2.70;;
9958;SDS011;5019;48.012;7.812;2022-07-18T14:54:23;4.40;;;2.83;;
9958;SDS011;5019;48.012;7.812;2022-07-18T14:56:49;2.93;;;2.73;;
9958;SDS011;5019;48.012;7.812;2022-07-18T14:59:15;2.60;;;2.40;;
9958;SDS011;5019;48.012;7.812;2022-07-18T15:01:41;4.57;;;3.07;;
9958;SDS011;5019;48.012;7.812;2022-07-18T15:04:07;3.87;;;2.60;;
9958;SDS011;5019;48.012;7.812;2022-07-18T15:06:33;6.23;;;3.80;;
9958;SDS011;5019;48.012;7.812;2022-07-18T15:08:59;3.50;;;3.17;;
9958;SDS011;5019;48.012;7.812;2022-07-18T15:11:25;5.43;;;3.23;;
9958;SDS011;5019;48.012;7.812;2022-07-18T15:13:51;3.27;;;3.07;;
9958;SDS011;5019;48.012;7.812;2022-07-18T15:16:17;3.60;;;3.30;;
9958;SDS011;5019;48.012;7.812;2022-07-18T15:18:43;3.87;;;3.20;;
9958;SDS011;5019;48.012;7.812;2022-07-18T15:21:10;7.10;;;3.93;;
9958;SDS011;5019;48.012;7.812;2022-07-18T15:23:36;4.33;;;3.93;;
9958;SDS011;5019;48.012;7.812;2022-07-18T15:26:02;5.80;;;3.77;;
9958;SDS011;5019;48.012;7.812;2022-07-18T15:28:27;5.17;;;3.57;;
9958;SDS011;5019;48.012;7.812;2022-07-18T15:30:53;4.00;;;3.43;;
9958;SDS011;5019;48.012;7.812;2022-07-18T15:33:19;6.10;;;3.90;;
9958;SDS011;5019;48.012;7.812;2022-07-18T15:35:46;6.20;;;4.10;;
9958;SDS011;5019;48.012;7.812;2022-07-18T15:38:12;12.50;;;4.40;;
9958;SDS011;5019;48.012;7.812;2022-07-18T15:40:38;12.80;;;4.40;;
9958;SDS011;5019;48.012;7.812;2022-07-18T15:43:04;10.23;;;4.30;;
9958;SDS011;5019;48.012;7.812;2022-07-18T15:45:30;5.30;;;4.20;;
9958;SDS011;5019;48.012;7.812;2022-07-18T15:47:56;6.10;;;3.97;;
9958;SDS011;5019;48.012;7.812;2022-07-18T15:50:23;5.63;;;5.07;;